Time;durP1;ratioP1;P1;durP2;ratioP2;P2;SDS_P1;SDS_P2;PMS_P1;PMS_P2;Temp;Humidity;BMP_temperature;BMP_pressure;BME280_temperature;BME280_humidity;BME280_pressure;Samples;Min_cycle;Max_cycle;Signal;HPM_P1;HPM_P2
2022/09/29 07:35:51;;;;;;;10.23;9.13;;;;;;;;;;643814;23;1179;-65
2022/09/29 07:36:06;;;;;;;9.90;8.90;;;;;;;;;;642225;23;1491;-65
2022/09/29 07:36:22;;;;;;;10.02;8.95;;;;;;;;;;638695;23;815;-66
2022/09/29 07:36:37;;;;;;;9.63;8.63;;;;;;;;;;640195;23;1005;-66
2022/09/29 07:36:53;;;;;;;10.60;8.80;;;;;;;;;;640123;23;803;-66
2022/09/29 07:37:08;;;;;;;10.47;8.70;;;;;;;;;;640678;23;1933;-66
2022/09/29 07:37:24;;;;;;;9.60;8.60;;;;;;;;;;637097;23;1227;-65
2022/09/29 07:37:39;;;;;;;9.88;8.60;;;;;;;;;;633922;23;1307;-66
2022/09/29 07:37:54;;;;;;;9.50;8.50;;;;;;;;;;631304;23;1208;-65
2022/09/29 07:38:10;;;;;;;10.00;8.70;;;;;;;;;;634189;23;831;-67
2022/09/29 07:38:26;;;;;;;10.57;8.90;;;;;;;;;;630867;23;944;-67
2022/09/29 07:38:45;;;;;;;9.63;8.57;;;;;;;;;;630554;23;1078;-66
2022/09/29 07:39:00;;;;;;;8.82;7.93;;;;;;;;;;630414;23;831;-66
2022/09/29 07:39:16;;;;;;;9.10;8.20;;;;;;;;;;632355;23;1146;-66
2022/09/29 07:39:31;;;;;;;10.18;8.40;;;;;;;;;;632494;23;769;-65
2022/09/29 07:39:46;;;;;;;9.82;8.23;;;;;;;;;;634388;23;807;-66
2022/09/29 07:40:02;;;;;;;8.63;7.80;;;;;;;;;;630895;23;1216;-66
2022/09/29 07:40:52;;;;;;;9.75;8.40;;;;;;;;;;630537;23;749;-65
2022/09/29 07:41:10;;;;;;;10.70;8.70;;;;;;;;;;632023;23;1172;-65
2022/09/29 07:41:25;;;;;;;9.95;8.95;;;;;;;;;;635730;23;847;-65
2022/09/29 07:41:40;;;;;;;9.55;8.65;;;;;;;;;;637330;23;812;-65
2022/09/29 07:41:56;;;;;;;9.43;8.53;;;;;;;;;;634257;23;1294;-65
2022/09/29 07:42:12;;;;;;;9.52;8.57;;;;;;;;;;636886;23;843;-65
2022/09/29 07:42:28;;;;;;;10.03;8.70;;;;;;;;;;636599;23;832;-65
2022/09/29 07:42:43;;;;;;;9.73;8.77;;;;;;;;;;634343;23;1264;-65
2022/09/29 07:42:58;;;;;;;9.90;8.90;;;;;;;;;;634968;23;1002;-65
2022/09/29 07:43:14;;;;;;;10.40;9.40;;;;;;;;;;633994;23;1160;-65
2022/09/29 07:43:29;;;;;;;10.93;9.50;;;;;;;;;;633708;23;744;-65
2022/09/29 07:43:45;;;;;;;10.68;8.90;;;;;;;;;;635102;23;812;-65
2022/09/29 07:44:00;;;;;;;9.85;8.85;;;;;;;;;;636727;23;861;-65
2022/09/29 07:44:16;;;;;;;9.93;8.93;;;;;;;;;;637569;23;1259;-65
2022/09/29 07:44:32;;;;;;;9.75;8.73;;;;;;;;;;637764;23;850;-65
2022/09/29 07:44:47;;;;;;;9.57;8.57;;;;;;;;;;639634;23;1309;-65
2022/09/29 07:45:03;;;;;;;9.77;8.83;;;;;;;;;;639544;23;1005;-65
2022/09/29 07:45:19;;;;;;;10.13;9.13;;;;;;;;;;636870;23;831;-65
2022/09/29 07:45:34;;;;;;;9.73;8.83;;;;;;;;;;637856;23;970;-66
2022/09/29 07:45:50;;;;;;;9.43;8.55;;;;;;;;;;637302;23;895;-65
2022/09/29 07:46:06;;;;;;;9.50;8.57;;;;;;;;;;637880;23;1029;-65
2022/09/29 07:46:22;;;;;;;10.02;8.35;;;;;;;;;;640088;23;898;-65
2022/09/29 07:46:37;;;;;;;9.27;8.30;;;;;;;;;;638295;23;1183;-65
2022/09/29 07:46:52;;;;;;;9.40;8.50;;;;;;;;;;639983;23;904;-66
2022/09/29 07:47:07;;;;;;;9.07;8.27;;;;;;;;;;640635;23;1189;-66
2022/09/29 07:47:23;;;;;;;9.37;8.47;;;;;;;;;;637182;23;1236;-66
2022/09/29 07:47:38;;;;;;;10.02;9.02;;;;;;;;;;636940;23;867;-67
2022/09/29 07:47:55;;;;;;;10.53;9.20;;;;;;;;;;637835;23;791;-67
2022/09/29 07:48:11;;;;;;;11.75;9.27;;;;;;;;;;636981;23;894;-66
2022/09/29 07:48:27;;;;;;;10.68;9.38;;;;;;;;;;637583;23;776;-67
2022/09/29 07:48:42;;;;;;;12.15;9.23;;;;;;;;;;640648;23;1025;-66
2022/09/29 07:48:57;;;;;;;12.80;9.60;;;;;;;;;;639166;23;918;-66
2022/09/29 07:49:13;;;;;;;10.87;9.57;;;;;;;;;;638094;23;1192;-66
2022/09/29 07:49:28;;;;;;;10.50;9.40;;;;;;;;;;640614;23;886;-66
2022/09/29 07:49:44;;;;;;;11.17;9.77;;;;;;;;;;640521;23;772;-67
2022/09/29 07:49:59;;;;;;;12.30;9.73;;;;;;;;;;640633;23;792;-67
2022/09/29 07:50:14;;;;;;;12.53;9.83;;;;;;;;;;640332;23;970;-66
2022/09/29 07:50:30;;;;;;;11.33;10.13;;;;;;;;;;637049;23;1164;-66
2022/09/29 07:50:45;;;;;;;11.15;9.98;;;;;;;;;;637675;23;1089;-67
2022/09/29 07:51:06;;;;;;;10.95;9.85;;;;;;;;;;637461;23;804;-67
2022/09/29 07:51:21;;;;;;;11.00;9.90;;;;;;;;;;640686;23;942;-66
2022/09/29 07:51:36;;;;;;;10.90;9.57;;;;;;;;;;639970;23;807;-66
2022/09/29 07:51:52;;;;;;;10.43;9.32;;;;;;;;;;637814;23;1377;-66
2022/09/29 07:52:07;;;;;;;10.40;9.40;;;;;;;;;;637232;23;1175;-67
2022/09/29 07:52:23;;;;;;;10.80;9.68;;;;;;;;;;638397;23;871;-67
2022/09/29 07:52:38;;;;;;;10.57;9.50;;;;;;;;;;640608;23;871;-67
2022/09/29 07:52:54;;;;;;;11.00;9.90;;;;;;;;;;640365;23;827;-68
2022/09/29 07:53:10;;;;;;;13.40;10.20;;;;;;;;;;639671;23;1378;-67
2022/09/29 07:53:26;;;;;;;13.13;10.10;;;;;;;;;;636450;23;1254;-67
2022/09/29 07:53:41;;;;;;;10.88;9.75;;;;;;;;;;637215;23;808;-67
2022/09/29 07:54:03;;;;;;;10.45;9.35;;;;;;;;;;637052;23;982;-67
2022/09/29 07:54:18;;;;;;;12.60;9.90;;;;;;;;;;636663;23;819;-68
2022/09/29 07:54:34;;;;;;;12.77;9.93;;;;;;;;;;637463;23;1302;-67
2022/09/29 07:54:49;;;;;;;10.97;9.80;;;;;;;;;;637461;23;905;-67
2022/09/29 07:55:06;;;;;;;11.10;9.90;;;;;;;;;;638708;23;943;-68
2022/09/29 07:55:22;;;;;;;11.30;10.15;;;;;;;;;;640386;23;859;-68
2022/09/29 07:55:38;;;;;;;11.40;10.27;;;;;;;;;;640017;23;942;-68
2022/09/29 07:55:53;;;;;;;11.85;10.50;;;;;;;;;;637389;23;1179;-68
2022/09/29 07:56:12;;;;;;;11.60;10.40;;;;;;;;;;637638;23;749;-68
2022/09/29 07:56:28;;;;;;;11.48;10.27;;;;;;;;;;635716;23;1362;-68
2022/09/29 07:56:43;;;;;;;11.73;10.40;;;;;;;;;;637274;23;756;-68
2022/09/29 07:56:59;;;;;;;11.07;9.87;;;;;;;;;;633563;23;1274;-68
2022/09/29 07:57:15;;;;;;;11.35;10.02;;;;;;;;;;634177;23;1905;-68
2022/09/29 07:57:30;;;;;;;12.03;10.80;;;;;;;;;;634360;23;1466;-67
2022/09/29 07:57:48;;;;;;;12.47;11.17;;;;;;;;;;635200;23;776;-68
2022/09/29 07:58:04;;;;;;;12.35;11.10;;;;;;;;;;634237;23;914;-68
2022/09/29 07:58:19;;;;;;;12.27;11.00;;;;;;;;;;631817;23;1419;-68
2022/09/29 07:58:36;;;;;;;11.90;10.70;;;;;;;;;;631043;23;1239;-68
2022/09/29 07:58:51;;;;;;;11.40;10.30;;;;;;;;;;631299;23;882;-68
2022/09/29 07:59:09;;;;;;;11.55;10.35;;;;;;;;;;633572;23;856;-68
2022/09/29 07:59:26;;;;;;;12.30;10.20;;;;;;;;;;630828;23;1506;-68
2022/09/29 07:59:41;;;;;;;11.45;10.07;;;;;;;;;;627420;23;1208;-68
2022/09/29 07:59:57;;;;;;;11.35;10.15;;;;;;;;;;629265;23;955;-68
2022/09/29 08:00:13;;;;;;;10.95;9.85;;;;;;;;;;632913;23;848;-68
2022/09/29 08:00:32;;;;;;;11.40;10.20;;;;;;;;;;632314;23;1122;-68
2022/09/29 08:00:54;;;;;;;11.80;10.60;;;;;;;;;;631083;23;1326;-67
2022/09/29 08:01:12;;;;;;;11.80;10.60;;;;;;;;;;631128;23;823;-67
2022/09/29 08:01:27;;;;;;;11.68;10.50;;;;;;;;;;634421;23;895;-67
2022/09/29 08:01:43;;;;;;;11.77;10.57;;;;;;;;;;637374;23;1342;-67
2022/09/29 08:01:58;;;;;;;11.43;10.33;;;;;;;;;;637674;23;783;-67
2022/09/29 08:02:14;;;;;;;11.90;10.50;;;;;;;;;;637065;23;832;-67
2022/09/29 08:02:29;;;;;;;13.30;10.57;;;;;;;;;;636603;23;1207;-67
2022/09/29 08:02:45;;;;;;;12.48;10.45;;;;;;;;;;639628;23;855;-67
2022/09/29 08:03:02;;;;;;;11.30;10.20;;;;;;;;;;640743;23;819;-67
2022/09/29 08:03:18;;;;;;;11.80;10.60;;;;;;;;;;640362;23;907;-69
2022/09/29 08:03:33;;;;;;;12.70;11.07;;;;;;;;;;640118;23;753;-68
2022/09/29 08:03:51;;;;;;;12.98;11.18;;;;;;;;;;633213;23;1287;-67
2022/09/29 08:04:07;;;;;;;11.85;10.65;;;;;;;;;;632726;23;1037;-67
2022/09/29 08:04:23;;;;;;;11.63;10.40;;;;;;;;;;632591;23;859;-67
2022/09/29 08:04:38;;;;;;;13.25;10.55;;;;;;;;;;635507;23;878;-67
2022/09/29 08:04:54;;;;;;;11.70;10.20;;;;;;;;;;634613;23;753;-66
2022/09/29 08:05:09;;;;;;;11.07;10.00;;;;;;;;;;637483;23;796;-67
2022/09/29 08:05:26;;;;;;;10.93;9.90;;;;;;;;;;637063;23;1018;-66
2022/09/29 08:05:41;;;;;;;10.38;9.38;;;;;;;;;;638497;23;827;-66
2022/09/29 08:05:57;;;;;;;10.40;9.40;;;;;;;;;;638600;23;1301;-66
2022/09/29 08:06:12;;;;;;;10.52;9.52;;;;;;;;;;640536;23;776;-66
2022/09/29 08:06:28;;;;;;;10.53;9.40;;;;;;;;;;640416;23;740;-66
2022/09/29 08:06:43;;;;;;;10.57;9.00;;;;;;;;;;640125;23;764;-66
2022/09/29 08:06:58;;;;;;;10.10;9.10;;;;;;;;;;639741;23;958;-66
2022/09/29 08:07:14;;;;;;;10.20;9.20;;;;;;;;;;637602;23;1058;-68
2022/09/29 08:07:29;;;;;;;10.32;9.23;;;;;;;;;;637347;23;1002;-66
2022/09/29 08:07:50;;;;;;;10.20;9.20;;;;;;;;;;637536;23;736;-66
2022/09/29 08:08:06;;;;;;;9.93;8.90;;;;;;;;;;640100;23;882;-66
2022/09/29 08:08:21;;;;;;;9.63;8.65;;;;;;;;;;636886;23;1155;-66
2022/09/29 08:08:38;;;;;;;9.50;8.60;;;;;;;;;;637436;23;1250;-67
2022/09/29 08:08:53;;;;;;;9.65;8.65;;;;;;;;;;636102;23;1049;-67
2022/09/29 08:09:09;;;;;;;9.97;8.97;;;;;;;;;;639010;23;954;-66
2022/09/29 08:09:24;;;;;;;9.88;8.93;;;;;;;;;;637492;23;870;-66
2022/09/29 08:09:39;;;;;;;9.30;8.40;;;;;;;;;;637064;23;860;-67
2022/09/29 08:09:55;;;;;;;9.00;8.20;;;;;;;;;;637593;23;847;-66
2022/09/29 08:10:10;;;;;;;9.37;8.47;;;;;;;;;;637137;23;788;-66
2022/09/29 08:10:27;;;;;;;9.60;8.70;;;;;;;;;;637370;23;717;-66
2022/09/29 08:10:43;;;;;;;9.40;8.50;;;;;;;;;;640936;23;927;-66
2022/09/29 08:11:08;;;;;;;9.38;8.48;;;;;;;;;;640515;23;863;-66
2022/09/29 08:11:24;;;;;;;9.63;8.63;;;;;;;;;;640025;23;874;-66
2022/09/29 08:11:41;;;;;;;9.73;8.73;;;;;;;;;;640557;23;826;-66
2022/09/29 08:11:57;;;;;;;9.55;8.52;;;;;;;;;;640910;23;882;-66
2022/09/29 08:12:12;;;;;;;9.50;8.50;;;;;;;;;;639477;23;816;-66
2022/09/29 08:12:27;;;;;;;9.40;8.40;;;;;;;;;;640719;23;950;-66
2022/09/29 08:12:42;;;;;;;10.07;9.07;;;;;;;;;;640163;23;1006;-66
2022/09/29 08:12:58;;;;;;;10.35;9.35;;;;;;;;;;640273;23;882;-67
2022/09/29 08:13:14;;;;;;;10.13;9.13;;;;;;;;;;640551;23;1316;-66
2022/09/29 08:13:31;;;;;;;10.63;9.60;;;;;;;;;;640004;23;1174;-66
2022/09/29 08:13:49;;;;;;;11.43;10.27;;;;;;;;;;637221;23;867;-66
2022/09/29 08:14:05;;;;;;;11.60;10.50;;;;;;;;;;636555;23;942;-66
2022/09/29 08:14:21;;;;;;;12.25;10.80;;;;;;;;;;633689;23;1219;-66
2022/09/29 08:14:38;;;;;;;12.95;10.90;;;;;;;;;;634433;23;847;-67
2022/09/29 08:14:53;;;;;;;12.35;10.63;;;;;;;;;;634376;23;914;-66
2022/09/29 08:15:08;;;;;;;12.00;10.17;;;;;;;;;;634264;23;974;-66
2022/09/29 08:15:24;;;;;;;11.27;10.00;;;;;;;;;;632019;23;1437;-69
2022/09/29 08:15:39;;;;;;;11.03;9.93;;;;;;;;;;633661;23;855;-67
2022/09/29 08:15:59;;;;;;;10.88;9.88;;;;;;;;;;635062;23;986;-67
2022/09/29 08:16:15;;;;;;;11.27;10.07;;;;;;;;;;638384;23;815;-66
2022/09/29 08:16:31;;;;;;;13.40;10.50;;;;;;;;;;637573;23;1266;-66
2022/09/29 08:16:46;;;;;;;12.80;10.57;;;;;;;;;;633907;23;1287;-66
2022/09/29 08:17:01;;;;;;;12.30;10.87;;;;;;;;;;630983;23;1283;-66
2022/09/29 08:17:16;;;;;;;12.13;10.68;;;;;;;;;;630833;23;1952;-66
2022/09/29 08:17:32;;;;;;;11.43;10.07;;;;;;;;;;630851;23;1231;-66
2022/09/29 08:17:47;;;;;;;11.90;10.07;;;;;;;;;;628677;23;951;-66
2022/09/29 08:18:02;;;;;;;12.67;10.50;;;;;;;;;;628170;23;840;-66
2022/09/29 08:18:18;;;;;;;11.95;10.63;;;;;;;;;;627609;23;1189;-68
2022/09/29 08:18:34;;;;;;;11.50;10.30;;;;;;;;;;628515;23;785;-66
2022/09/29 08:18:49;;;;;;;13.45;10.45;;;;;;;;;;631281;23;1307;-66
2022/09/29 08:19:05;;;;;;;13.75;10.80;;;;;;;;;;630797;23;800;-66
2022/09/29 08:19:20;;;;;;;12.80;10.95;;;;;;;;;;634680;23;899;-66
2022/09/29 08:19:36;;;;;;;12.73;10.97;;;;;;;;;;634168;23;800;-67
2022/09/29 08:19:51;;;;;;;12.50;11.20;;;;;;;;;;633815;23;1429;-66
2022/09/29 08:20:07;;;;;;;12.97;11.57;;;;;;;;;;631659;23;1279;-66
2022/09/29 08:20:22;;;;;;;13.35;11.70;;;;;;;;;;630824;23;1177;-66
2022/09/29 08:20:37;;;;;;;13.93;11.60;;;;;;;;;;630955;23;1010;-66
2022/09/29 08:20:53;;;;;;;13.80;11.73;;;;;;;;;;634423;23;800;-66
2022/09/29 08:21:11;;;;;;;13.87;12.00;;;;;;;;;;633732;23;856;-67
2022/09/29 08:21:28;;;;;;;14.68;12.00;;;;;;;;;;635155;23;843;-66
2022/09/29 08:21:45;;;;;;;15.10;11.80;;;;;;;;;;633572;23;1232;-66
2022/09/29 08:22:00;;;;;;;13.85;11.65;;;;;;;;;;635924;23;827;-66
2022/09/29 08:22:15;;;;;;;13.00;11.40;;;;;;;;;;635670;23;1180;-66
2022/09/29 08:22:31;;;;;;;12.10;10.77;;;;;;;;;;636783;23;954;-66
2022/09/29 08:22:47;;;;;;;11.80;10.60;;;;;;;;;;636107;23;1449;-66
2022/09/29 08:23:02;;;;;;;11.95;10.75;;;;;;;;;;636150;23;847;-66
2022/09/29 08:23:17;;;;;;;12.23;10.93;;;;;;;;;;636810;23;796;-66
2022/09/29 08:23:37;;;;;;;12.50;10.53;;;;;;;;;;635032;23;1247;-66
2022/09/29 08:23:52;;;;;;;11.75;10.27;;;;;;;;;;636239;23;934;-66
2022/09/29 08:24:11;;;;;;;11.47;10.27;;;;;;;;;;638501;23;791;-66
2022/09/29 08:24:28;;;;;;;11.13;9.88;;;;;;;;;;640126;23;981;-66
2022/09/29 08:24:44;;;;;;;10.57;9.48;;;;;;;;;;638843;23;843;-66
2022/09/29 08:24:59;;;;;;;10.48;9.32;;;;;;;;;;636704;23;1294;-67
2022/09/29 08:25:15;;;;;;;10.30;9.20;;;;;;;;;;633771;23;1263;-66
2022/09/29 08:25:31;;;;;;;10.02;9.00;;;;;;;;;;633935;23;1213;-67
2022/09/29 08:25:46;;;;;;;10.53;9.17;;;;;;;;;;633973;23;875;-66
2022/09/29 08:26:16;;;;;;;10.37;8.87;;;;;;;;;;634363;23;832;-67
2022/09/29 08:26:34;;;;;;;11.43;9.23;;;;;;;;;;633958;23;868;-66
2022/09/29 08:26:50;;;;;;;11.40;9.40;;;;;;;;;;635673;23;816;-66
2022/09/29 08:27:05;;;;;;;10.50;9.40;;;;;;;;;;634610;23;1196;-66
2022/09/29 08:27:21;;;;;;;10.60;9.50;;;;;;;;;;637979;23;854;-66
2022/09/29 08:27:36;;;;;;;10.77;9.73;;;;;;;;;;637406;23;1223;-66
2022/09/29 08:27:52;;;;;;;12.03;10.10;;;;;;;;;;636874;23;776;-66
2022/09/29 08:28:10;;;;;;;15.32;10.73;;;;;;;;;;636702;23;867;-66
2022/09/29 08:28:25;;;;;;;14.25;10.68;;;;;;;;;;637388;23;887;-67
2022/09/29 08:28:41;;;;;;;11.77;10.20;;;;;;;;;;634000;23;1489;-67
2022/09/29 08:28:56;;;;;;;11.90;10.20;;;;;;;;;;634792;23;865;-65
2022/09/29 08:29:12;;;;;;;12.83;10.40;;;;;;;;;;637290;23;701;-65
2022/09/29 08:29:28;;;;;;;12.32;10.23;;;;;;;;;;637974;23;901;-65
2022/09/29 08:29:43;;;;;;;11.43;9.83;;;;;;;;;;640487;23;1013;-65
2022/09/29 08:29:58;;;;;;;12.10;10.00;;;;;;;;;;639860;23;982;-65
2022/09/29 08:30:14;;;;;;;11.73;10.00;;;;;;;;;;636661;23;859;-66
2022/09/29 08:30:29;;;;;;;11.02;9.93;;;;;;;;;;638166;23;831;-67
2022/09/29 08:30:45;;;;;;;11.48;10.30;;;;;;;;;;640097;23;982;-66
2022/09/29 08:31:05;;;;;;;11.70;10.50;;;;;;;;;;637264;23;847;-66
2022/09/29 08:31:21;;;;;;;11.73;10.52;;;;;;;;;;637089;23;831;-67
2022/09/29 08:31:36;;;;;;;13.13;10.90;;;;;;;;;;633369;23;1370;-65
2022/09/29 08:31:54;;;;;;;14.25;11.07;;;;;;;;;;633509;23;1032;-65
2022/09/29 08:32:09;;;;;;;12.35;11.00;;;;;;;;;;636263;23;824;-65
2022/09/29 08:32:24;;;;;;;12.30;11.10;;;;;;;;;;636467;23;986;-64
2022/09/29 08:32:40;;;;;;;12.02;10.82;;;;;;;;;;636447;23;1030;-64
2022/09/29 08:32:55;;;;;;;11.80;10.60;;;;;;;;;;638657;23;792;-65
2022/09/29 08:33:13;;;;;;;11.60;10.40;;;;;;;;;;639913;23;804;-64
2022/09/29 08:33:29;;;;;;;11.38;10.18;;;;;;;;;;640864;23;859;-64
2022/09/29 08:33:48;;;;;;;11.20;10.00;;;;;;;;;;639793;23;2108;-64
2022/09/29 08:34:04;;;;;;;11.57;9.90;;;;;;;;;;639999;23;919;-64
2022/09/29 08:34:19;;;;;;;11.63;10.13;;;;;;;;;;636491;23;1269;-65
2022/09/29 08:34:35;;;;;;;11.38;10.18;;;;;;;;;;633854;23;876;-64
2022/09/29 08:34:50;;;;;;;11.17;9.97;;;;;;;;;;634431;23;791;-64
2022/09/29 08:35:06;;;;;;;10.80;9.68;;;;;;;;;;633387;23;1223;-64
2022/09/29 08:35:21;;;;;;;12.93;9.70;;;;;;;;;;630526;23;832;-65
2022/09/29 08:35:37;;;;;;;12.98;9.55;;;;;;;;;;632461;23;1334;-64
2022/09/29 08:35:57;;;;;;;12.10;9.37;;;;;;;;;;633716;23;1228;-65
2022/09/29 08:36:15;;;;;;;12.32;8.65;;;;;;;;;;635650;23;1250;-64
2022/09/29 08:36:30;;;;;;;10.02;8.88;;;;;;;;;;636577;23;851;-64
2022/09/29 08:36:46;;;;;;;9.90;8.90;;;;;;;;;;636025;23;819;-65
2022/09/29 08:37:01;;;;;;;9.37;8.43;;;;;;;;;;639175;23;764;-64
2022/09/29 08:37:16;;;;;;;9.57;8.50;;;;;;;;;;639696;23;1936;-64
2022/09/29 08:37:32;;;;;;;9.68;8.68;;;;;;;;;;640333;23;1302;-65
2022/09/29 08:37:47;;;;;;;9.70;8.70;;;;;;;;;;637125;23;1223;-64
2022/09/29 08:38:03;;;;;;;11.03;8.57;;;;;;;;;;637214;23;1175;-64
2022/09/29 08:38:18;;;;;;;10.23;8.53;;;;;;;;;;637056;23;811;-65
2022/09/29 08:38:33;;;;;;;9.17;8.27;;;;;;;;;;636663;23;1292;-65
2022/09/29 08:38:51;;;;;;;9.18;8.27;;;;;;;;;;637409;23;761;-64
2022/09/29 08:39:09;;;;;;;9.32;8.43;;;;;;;;;;637008;23;839;-64
2022/09/29 08:39:25;;;;;;;9.60;8.60;;;;;;;;;;638652;23;1266;-64
2022/09/29 08:39:40;;;;;;;9.60;8.60;;;;;;;;;;641431;23;772;-64
2022/09/29 08:39:56;;;;;;;9.23;8.32;;;;;;;;;;639986;23;827;-65
2022/09/29 08:40:11;;;;;;;8.83;8.03;;;;;;;;;;636677;23;1180;-64
2022/09/29 08:40:28;;;;;;;9.02;8.13;;;;;;;;;;637106;23;1239;-64
2022/09/29 08:40:43;;;;;;;9.43;8.30;;;;;;;;;;634341;23;867;-64
2022/09/29 08:41:03;;;;;;;9.10;8.20;;;;;;;;;;633386;23;781;-64
2022/09/29 08:41:18;;;;;;;9.95;7.95;;;;;;;;;;635696;23;875;-64
2022/09/29 08:42:16;;;;;;;9.13;7.70;;;;;;;;;;637058;23;951;-64
2022/09/29 08:43:00;;;;;;;8.05;7.25;;;;;;;;;;639668;23;1457;-64
2022/09/29 08:43:29;;;;;;;8.27;7.45;;;;;;;;;;626578;23;1339;-65
2022/09/29 08:43:46;;;;;;;9.93;8.13;;;;;;;;;;639799;23;866;-65
2022/09/29 08:44:06;;;;;;;9.45;8.10;;;;;;;;;;639729;23;1042;-64
2022/09/29 08:44:28;;;;;;;9.82;8.25;;;;;;;;;;640454;23;942;-64
2022/09/29 08:44:55;;;;;;;8.75;7.80;;;;;;;;;;636914;23;1258;-67
2022/09/29 08:45:22;;;;;;;8.82;7.93;;;;;;;;;;639117;23;1012;-67
2022/09/29 08:45:48;;;;;;;8.98;8.07;;;;;;;;;;636913;23;1258;-64
2022/09/29 08:46:16;;;;;;;9.82;8.82;;;;;;;;;;637348;23;934;-64
2022/09/29 08:46:39;;;;;;;10.07;9.07;;;;;;;;;;637424;23;871;-64
2022/09/29 08:47:03;;;;;;;9.40;8.50;;;;;;;;;;639846;23;981;-64
2022/09/29 08:47:31;;;;;;;10.23;8.60;;;;;;;;;;640016;23;1041;-64
2022/09/29 08:47:49;;;;;;;9.48;8.48;;;;;;;;;;640587;23;1078;-64
2022/09/29 08:48:12;;;;;;;9.43;8.50;;;;;;;;;;639924;23;1230;-64
2022/09/29 08:48:32;;;;;;;10.80;9.02;;;;;;;;;;640628;23;1016;-64
2022/09/29 08:48:50;;;;;;;10.13;9.02;;;;;;;;;;639983;23;896;-64
2022/09/29 08:49:12;;;;;;;10.30;9.27;;;;;;;;;;638708;23;894;-64
2022/09/29 08:49:47;;;;;;;9.90;8.88;;;;;;;;;;639259;23;1029;-64
2022/09/29 08:50:26;;;;;;;9.95;8.95;;;;;;;;;;640552;23;936;-64
2022/09/29 08:50:46;;;;;;;9.57;8.68;;;;;;;;;;628018;23;1277;-64
2022/09/29 08:51:05;;;;;;;10.02;9.00;;;;;;;;;;640351;23;1354;-64
2022/09/29 08:51:35;;;;;;;10.45;9.38;;;;;;;;;;640012;23;878;-64
2022/09/29 08:51:54;;;;;;;10.13;9.13;;;;;;;;;;636544;23;1345;-64
2022/09/29 08:52:30;;;;;;;10.40;9.40;;;;;;;;;;637341;23;820;-64
2022/09/29 08:52:54;;;;;;;10.30;9.30;;;;;;;;;;634100;23;1227;-64
2022/09/29 08:53:14;;;;;;;10.27;9.30;;;;;;;;;;636895;23;1366;-64
2022/09/29 08:53:33;;;;;;;10.73;9.65;;;;;;;;;;637563;23;1052;-64
2022/09/29 08:53:51;;;;;;;10.73;9.65;;;;;;;;;;637008;23;953;-65
2022/09/29 08:54:19;;;;;;;9.77;8.88;;;;;;;;;;637140;23;871;-65
2022/09/29 08:54:43;;;;;;;10.15;9.15;;;;;;;;;;637715;23;915;-64
2022/09/29 08:55:16;;;;;;;9.60;8.68;;;;;;;;;;637967;23;1227;-65
2022/09/29 08:55:43;;;;;;;9.57;8.52;;;;;;;;;;640187;23;1021;-65
2022/09/29 08:56:08;;;;;;;10.18;9.13;;;;;;;;;;637252;23;1394;-65
2022/09/29 08:56:25;;;;;;;10.75;9.65;;;;;;;;;;633662;23;1207;-64
2022/09/29 08:56:40;;;;;;;10.70;9.60;;;;;;;;;;634008;23;958;-64
2022/09/29 08:56:57;;;;;;;10.73;9.63;;;;;;;;;;636521;23;958;-64
2022/09/29 08:57:18;;;;;;;10.43;9.32;;;;;;;;;;636705;23;1964;-64
2022/09/29 08:57:35;;;;;;;11.63;9.63;;;;;;;;;;636898;23;823;-64
2022/09/29 08:57:56;;;;;;;11.57;10.25;;;;;;;;;;637499;23;926;-67
2022/09/29 08:58:15;;;;;;;10.60;9.50;;;;;;;;;;637553;23;918;-67
2022/09/29 08:58:32;;;;;;;10.55;9.45;;;;;;;;;;639750;23;921;-65
2022/09/29 08:58:47;;;;;;;11.18;9.85;;;;;;;;;;637557;23;1377;-64
2022/09/29 08:59:02;;;;;;;10.70;9.60;;;;;;;;;;638109;23;780;-65
2022/09/29 08:59:18;;;;;;;10.73;9.40;;;;;;;;;;639431;23;847;-64
2022/09/29 08:59:33;;;;;;;10.55;9.50;;;;;;;;;;640456;23;815;-65
2022/09/29 08:59:59;;;;;;;10.47;9.37;;;;;;;;;;640623;23;894;-64
2022/09/29 09:00:17;;;;;;;10.38;9.38;;;;;;;;;;637202;23;1362;-64
2022/09/29 09:00:40;;;;;;;10.43;9.43;;;;;;;;;;637295;23;1199;-64
2022/09/29 09:01:20;;;;;;;10.32;9.23;;;;;;;;;;640282;23;851;-64
2022/09/29 09:02:02;;;;;;;10.60;9.48;;;;;;;;;;639987;23;922;-64
2022/09/29 09:02:37;;;;;;;10.65;9.23;;;;;;;;;;640316;23;930;-64
2022/09/29 09:03:33;;;;;;;10.60;9.38;;;;;;;;;;640519;23;1009;-65
2022/09/29 09:04:26;;;;;;;10.52;9.52;;;;;;;;;;624890;23;1346;-64
2022/09/29 09:04:55;;;;;;;10.65;9.55;;;;;;;;;;637733;23;907;-64
2022/09/29 09:05:13;;;;;;;11.00;9.90;;;;;;;;;;637001;23;839;-64
2022/09/29 09:06:00;;;;;;;10.82;9.73;;;;;;;;;;634103;23;926;-64
2022/09/29 09:06:23;;;;;;;11.13;9.95;;;;;;;;;;637158;23;871;-64
2022/09/29 09:07:07;;;;;;;11.25;10.15;;;;;;;;;;639677;23;810;-63
2022/09/29 09:07:31;;;;;;;10.50;9.50;;;;;;;;;;640303;23;823;-64
2022/09/29 09:07:56;;;;;;;9.80;8.80;;;;;;;;;;640812;23;882;-63
2022/09/29 09:08:33;;;;;;;9.27;8.38;;;;;;;;;;640781;23;934;-63
2022/09/29 09:08:51;;;;;;;10.30;9.30;;;;;;;;;;640274;23;946;-63
2022/09/29 09:09:22;;;;;;;10.98;9.88;;;;;;;;;;640004;23;1895;-63
2022/09/29 09:10:03;;;;;;;10.30;9.27;;;;;;;;;;640394;23;940;-63
2022/09/29 09:10:40;;;;;;;11.32;9.45;;;;;;;;;;636637;23;1203;-63
2022/09/29 09:11:24;;;;;;;11.00;9.90;;;;;;;;;;637726;23;890;-64
2022/09/29 09:11:45;;;;;;;9.63;8.73;;;;;;;;;;639990;23;893;-63
2022/09/29 09:12:25;;;;;;;10.00;9.10;;;;;;;;;;637420;23;1992;-63
2022/09/29 09:12:58;;;;;;;9.80;8.80;;;;;;;;;;637678;23;1235;-63
2022/09/29 09:13:40;;;;;;;10.48;9.27;;;;;;;;;;637158;23;973;-63
2022/09/29 09:14:22;;;;;;;10.45;9.35;;;;;;;;;;638702;23;1025;-65
2022/09/29 09:14:49;;;;;;;10.73;9.63;;;;;;;;;;640536;23;918;-64
2022/09/29 09:15:36;;;;;;;10.75;9.65;;;;;;;;;;640265;23;1052;-64
2022/09/29 09:16:23;;;;;;;11.00;9.90;;;;;;;;;;639681;23;1619;-64
2022/09/29 09:16:59;;;;;;;10.75;9.75;;;;;;;;;;631028;23;1156;-65
2022/09/29 09:17:32;;;;;;;11.20;9.93;;;;;;;;;;640643;23;1896;-65
2022/09/29 09:17:56;;;;;;;10.50;9.50;;;;;;;;;;640159;23;830;-65
2022/09/29 09:18:23;;;;;;;10.65;9.60;;;;;;;;;;640092;23;1943;-64
2022/09/29 09:18:42;;;;;;;10.20;9.20;;;;;;;;;;640859;23;843;-64
2022/09/29 09:19:24;;;;;;;10.07;9.07;;;;;;;;;;636883;23;1263;-64
2022/09/29 09:20:02;;;;;;;10.90;9.32;;;;;;;;;;636957;23;756;-64
2022/09/29 09:20:17;;;;;;;10.40;9.38;;;;;;;;;;640236;23;865;-64
2022/09/29 09:21:03;;;;;;;10.53;9.53;;;;;;;;;;640767;23;795;-64
2022/09/29 09:21:23;;;;;;;10.77;9.68;;;;;;;;;;639657;23;1401;-64
2022/09/29 09:21:42;;;;;;;10.80;9.65;;;;;;;;;;639958;23;977;-64
2022/09/29 09:22:18;;;;;;;11.85;10.00;;;;;;;;;;637548;23;1279;-64
2022/09/29 09:22:56;;;;;;;11.90;10.68;;;;;;;;;;637193;23;1354;-64
2022/09/29 09:23:45;;;;;;;12.23;10.95;;;;;;;;;;639455;23;897;-65
2022/09/29 09:24:11;;;;;;;11.30;10.10;;;;;;;;;;632071;23;1452;-64
2022/09/29 09:24:45;;;;;;;11.35;10.15;;;;;;;;;;640752;23;914;-64
2022/09/29 09:25:06;;;;;;;11.07;9.98;;;;;;;;;;640287;23;918;-64
2022/09/29 09:25:33;;;;;;;10.45;9.45;;;;;;;;;;640046;23;1054;-64
2022/09/29 09:25:53;;;;;;;10.73;9.63;;;;;;;;;;640828;23;873;-64
2022/09/29 09:26:11;;;;;;;9.95;8.95;;;;;;;;;;640290;23;866;-64
2022/09/29 09:26:39;;;;;;;9.77;8.77;;;;;;;;;;640462;23;902;-64
2022/09/29 09:26:57;;;;;;;10.40;9.40;;;;;;;;;;640009;23;1064;-65
2022/09/29 09:27:21;;;;;;;10.50;9.50;;;;;;;;;;640564;23;1032;-64
2022/09/29 09:27:42;;;;;;;9.90;9.00;;;;;;;;;;636444;23;869;-64
2022/09/29 09:28:07;;;;;;;9.70;8.80;;;;;;;;;;637904;23;1460;-64
2022/09/29 09:28:34;;;;;;;10.23;9.20;;;;;;;;;;637046;23;978;-64
2022/09/29 09:28:56;;;;;;;10.02;9.02;;;;;;;;;;634337;23;1232;-64
2022/09/29 09:29:36;;;;;;;10.45;9.35;;;;;;;;;;634099;23;1046;-65
2022/09/29 09:30:03;;;;;;;10.27;9.27;;;;;;;;;;637380;23;1129;-64
2022/09/29 09:30:19;;;;;;;9.93;9.02;;;;;;;;;;638820;23;1108;-64
2022/09/29 09:30:41;;;;;;;9.75;8.85;;;;;;;;;;640743;23;1060;-64
2022/09/29 09:31:02;;;;;;;9.50;8.60;;;;;;;;;;641123;23;947;-64
2022/09/29 09:31:30;;;;;;;9.52;8.50;;;;;;;;;;640613;23;866;-64
2022/09/29 09:31:55;;;;;;;10.13;9.13;;;;;;;;;;640554;23;1001;-65
2022/09/29 09:32:20;;;;;;;10.07;9.10;;;;;;;;;;640596;23;858;-64
2022/09/29 09:32:49;;;;;;;10.80;9.70;;;;;;;;;;640208;23;795;-64
2022/09/29 09:33:13;;;;;;;10.45;9.35;;;;;;;;;;640472;23;964;-64
2022/09/29 09:33:35;;;;;;;10.82;9.20;;;;;;;;;;640430;23;1254;-64
2022/09/29 09:34:03;;;;;;;9.80;8.82;;;;;;;;;;640468;23;997;-64
2022/09/29 09:34:36;;;;;;;9.90;8.93;;;;;;;;;;636683;23;1033;-64
2022/09/29 09:34:57;;;;;;;9.95;8.95;;;;;;;;;;637745;23;1021;-64
2022/09/29 09:35:42;;;;;;;10.27;8.63;;;;;;;;;;637886;23;827;-64
2022/09/29 09:36:02;;;;;;;9.38;8.57;;;;;;;;;;640910;23;1072;-64
2022/09/29 09:36:42;;;;;;;9.95;8.98;;;;;;;;;;639222;23;1290;-64
2022/09/29 09:37:24;;;;;;;11.05;9.25;;;;;;;;;;640505;23;1057;-64
2022/09/29 09:37:41;;;;;;;10.35;9.02;;;;;;;;;;640317;23;859;-64
2022/09/29 09:38:07;;;;;;;10.07;9.07;;;;;;;;;;641008;23;985;-64
2022/09/29 09:38:37;;;;;;;10.95;9.90;;;;;;;;;;639661;23;1107;-65
2022/09/29 09:39:10;;;;;;;11.52;9.77;;;;;;;;;;637166;23;899;-64
2022/09/29 09:39:33;;;;;;;11.57;9.50;;;;;;;;;;637274;23;882;-65
2022/09/29 09:40:01;;;;;;;10.73;9.70;;;;;;;;;;637131;23;993;-64